Time;durP1;ratioP1;P1;durP2;ratioP2;P2;SDS_P1;SDS_P2;PMS_P1;PMS_P2;Temp;Humidity;BMP_temperature;BMP_pressure;BME280_temperature;BME280_humidity;BME280_pressure;Samples;Min_cycle;Max_cycle;Signal;HPM_P1;HPM_P2
2024/03/01 00:01:32;;;;;;;63.33;38.47;;;;;;;;;;5071497;28;20124;-70
2024/03/01 00:03:58;;;;;;;58.33;35.60;;;;;;;;;;5055584;28;20476;-70
2024/03/01 00:06:23;;;;;;;61.42;37.13;;;;;;;;;;5055970;28;20025;-70
2024/03/01 00:08:49;;;;;;;53.75;33.42;;;;;;;;;;5054978;28;20590;-70
2024/03/01 00:11:14;;;;;;;59.63;34.10;;;;;;;;;;5056137;28;20009;-70
2024/03/01 00:13:41;;;;;;;52.55;33.85;;;;;;;;;;5056095;28;20108;-70
2024/03/01 00:16:06;;;;;;;57.55;36.03;;;;;;;;;;5056091;28;20036;-70
2024/03/01 00:18:32;;;;;;;54.22;34.85;;;;;;;;;;5055983;28;20032;-70
2024/03/01 00:20:57;;;;;;;56.15;35.45;;;;;;;;;;5054728;28;20032;-69
2024/03/01 00:23:23;;;;;;;55.33;36.03;;;;;;;;;;5056225;28;20110;-70
2024/03/01 00:25:49;;;;;;;53.05;34.40;;;;;;;;;;5055870;28;20017;-69
2024/03/01 00:28:15;;;;;;;58.03;34.88;;;;;;;;;;5055859;28;20066;-70
2024/03/01 00:30:40;;;;;;;57.60;34.92;;;;;;;;;;5091392;22;20064;-63
2024/03/01 00:33:08;;;;;;;55.80;33.40;;;;;;;;;;5098580;22;20411;-64
2024/03/01 00:35:33;;;;;;;49.10;31.58;;;;;;;;;;5095969;28;20028;-64
2024/03/01 00:37:59;;;;;;;49.42;31.42;;;;;;;;;;5078107;28;20043;-65
2024/03/01 00:40:24;;;;;;;54.47;34.53;;;;;;;;;;5095554;28;20027;-65
2024/03/01 00:42:50;;;;;;;56.97;35.35;;;;;;;;;;5096059;28;20034;-65
2024/03/01 00:45:15;;;;;;;52.95;33.38;;;;;;;;;;5095754;28;20032;-66
2024/03/01 00:47:48;;;;;;;55.85;35.53;;;;;;;;;;5095419;28;20062;-63
2024/03/01 00:50:13;;;;;;;51.83;32.33;;;;;;;;;;5111681;28;20079;-63
2024/03/01 00:52:39;;;;;;;54.42;33.92;;;;;;;;;;5095292;28;20103;-64
2024/03/01 00:55:05;;;;;;;56.65;34.63;;;;;;;;;;5077097;28;20027;-64
2024/03/01 00:57:30;;;;;;;55.17;33.83;;;;;;;;;;5095500;28;20109;-68
2024/03/01 00:59:56;;;;;;;55.00;33.97;;;;;;;;;;5093847;28;20046;-64
2024/03/01 01:02:21;;;;;;;52.25;35.10;;;;;;;;;;5095396;28;20032;-64
2024/03/01 01:04:46;;;;;;;57.00;34.97;;;;;;;;;;5095750;28;20088;-64
2024/03/01 01:07:12;;;;;;;58.40;34.78;;;;;;;;;;5079027;28;20048;-63
2024/03/01 01:09:37;;;;;;;64.53;37.85;;;;;;;;;;5096470;28;20031;-64
2024/03/01 01:12:03;;;;;;;53.20;36.28;;;;;;;;;;5077714;28;20024;-64
2024/03/01 01:14:28;;;;;;;57.03;36.42;;;;;;;;;;5095044;28;20104;-64
2024/03/01 01:16:54;;;;;;;56.55;35.55;;;;;;;;;;5094326;28;20463;-65
2024/03/01 01:19:19;;;;;;;58.28;36.25;;;;;;;;;;5094768;28;20519;-65
2024/03/01 01:21:44;;;;;;;58.70;35.65;;;;;;;;;;5095324;28;20024;-66
2024/03/01 01:24:10;;;;;;;56.47;35.25;;;;;;;;;;5094986;28;20464;-64
2024/03/01 01:26:35;;;;;;;54.90;34.72;;;;;;;;;;5076540;28;20502;-65
2024/03/01 01:29:02;;;;;;;51.70;34.38;;;;;;;;;;5094662;28;20370;-64
2024/03/01 01:31:28;;;;;;;56.60;36.13;;;;;;;;;;5094915;28;20032;-66
2024/03/01 01:33:53;;;;;;;57.05;33.83;;;;;;;;;;5094491;28;20545;-66
2024/03/01 01:36:19;;;;;;;56.63;33.45;;;;;;;;;;5076227;28;20034;-67
2024/03/01 01:38:44;;;;;;;55.45;34.30;;;;;;;;;;5094483;28;20051;-67
2024/03/01 01:41:10;;;;;;;51.30;32.50;;;;;;;;;;5094988;28;20352;-63
2024/03/01 01:43:37;;;;;;;52.53;32.97;;;;;;;;;;5094454;28;20554;-63
2024/03/01 01:46:04;;;;;;;50.53;33.05;;;;;;;;;;5094654;28;20064;-63
2024/03/01 01:48:40;;;;;;;53.67;33.80;;;;;;;;;;5099741;22;20530;-64
2024/03/01 01:51:07;;;;;;;52.83;32.83;;;;;;;;;;5074023;22;20048;-63
2024/03/01 01:53:34;;;;;;;56.83;32.95;;;;;;;;;;5074256;28;20078;-66
2024/03/01 01:56:00;;;;;;;51.70;32.80;;;;;;;;;;5074200;28;20099;-64
2024/03/01 01:58:26;;;;;;;54.05;33.85;;;;;;;;;;5074139;28;20028;-64
2024/03/01 02:00:52;;;;;;;52.08;32.83;;;;;;;;;;5072617;28;20082;-64
2024/03/01 02:03:18;;;;;;;52.50;33.20;;;;;;;;;;5073199;28;20028;-65
2024/03/01 02:05:44;;;;;;;52.92;34.35;;;;;;;;;;5073746;28;20036;-64
2024/03/01 02:08:09;;;;;;;55.85;32.78;;;;;;;;;;5074077;28;20416;-65
2024/03/01 02:10:36;;;;;;;50.45;32.88;;;;;;;;;;5073617;28;20028;-66
2024/03/01 02:13:02;;;;;;;51.65;32.20;;;;;;;;;;5073714;28;20020;-67
2024/03/01 02:15:28;;;;;;;51.70;32.53;;;;;;;;;;5073975;28;20032;-66
2024/03/01 02:17:53;;;;;;;51.78;32.10;;;;;;;;;;5073665;28;20052;-65
2024/03/01 02:20:20;;;;;;;51.20;33.25;;;;;;;;;;5072378;28;20052;-66
2024/03/01 02:22:52;;;;;;;48.47;31.52;;;;;;;;;;5073853;28;20031;-66
2024/03/01 02:28:07;;;;;;;54.42;34.05;;;;;;;;;;5080254;22;20131;-65
2024/03/01 02:30:33;;;;;;;52.00;33.13;;;;;;;;;;5073743;28;20487;-65
2024/03/01 02:32:58;;;;;;;56.38;33.70;;;;;;;;;;5073506;28;20032;-65
2024/03/01 02:35:24;;;;;;;57.85;34.45;;;;;;;;;;5073495;28;20013;-65
2024/03/01 02:37:49;;;;;;;52.25;32.47;;;;;;;;;;5072565;28;20028;-65
2024/03/01 02:40:15;;;;;;;53.10;32.40;;;;;;;;;;5072240;28;20465;-68
2024/03/01 02:42:40;;;;;;;51.88;31.33;;;;;;;;;;5072194;28;20025;-68
2024/03/01 02:45:06;;;;;;;48.20;30.85;;;;;;;;;;5073946;28;20056;-68
2024/03/01 02:47:31;;;;;;;48.00;31.23;;;;;;;;;;5073617;28;20028;-68
2024/03/01 02:49:57;;;;;;;50.63;30.80;;;;;;;;;;5073510;28;20029;-67
2024/03/01 02:52:22;;;;;;;55.88;33.05;;;;;;;;;;5072696;28;20097;-67
2024/03/01 02:54:47;;;;;;;51.00;32.05;;;;;;;;;;5073286;28;20052;-67
2024/03/01 02:57:13;;;;;;;48.92;32.47;;;;;;;;;;5073230;28;20380;-67
2024/03/01 02:59:38;;;;;;;52.40;32.15;;;;;;;;;;5072631;28;20064;-67
2024/03/01 03:02:04;;;;;;;47.92;32.13;;;;;;;;;;5073158;28;20028;-67
2024/03/01 03:04:29;;;;;;;50.95;32.00;;;;;;;;;;5072308;28;20093;-67
2024/03/01 03:06:55;;;;;;;47.03;29.58;;;;;;;;;;5073443;28;20082;-63
2024/03/01 03:09:21;;;;;;;51.55;31.67;;;;;;;;;;5055134;28;20043;-64
2024/03/01 03:11:46;;;;;;;48.65;31.63;;;;;;;;;;5071976;28;20025;-64
2024/03/01 03:14:11;;;;;;;49.20;31.50;;;;;;;;;;5070738;28;20025;-63
2024/03/01 03:16:37;;;;;;;47.95;30.52;;;;;;;;;;5073127;28;20040;-63
2024/03/01 03:19:03;;;;;;;53.40;30.52;;;;;;;;;;5072036;28;20086;-63
2024/03/01 03:21:28;;;;;;;47.65;31.30;;;;;;;;;;5073411;28;20051;-63
2024/03/01 03:23:54;;;;;;;46.25;32.03;;;;;;;;;;5073668;28;20078;-63
2024/03/01 03:26:19;;;;;;;47.38;29.95;;;;;;;;;;5071767;28;20044;-63
2024/03/01 03:28:45;;;;;;;48.22;31.90;;;;;;;;;;5070757;28;20036;-66
2024/03/01 03:31:10;;;;;;;52.10;31.25;;;;;;;;;;5073175;28;20126;-66
2024/03/01 03:33:35;;;;;;;50.33;30.73;;;;;;;;;;5072398;28;20021;-68
2024/03/01 03:36:01;;;;;;;52.42;32.25;;;;;;;;;;5071451;28;20031;-68
2024/03/01 03:38:26;;;;;;;49.88;31.35;;;;;;;;;;5072084;28;20045;-68
2024/03/01 03:40:52;;;;;;;53.25;32.92;;;;;;;;;;5075142;28;20439;-68
2024/03/01 03:43:17;;;;;;;52.78;32.25;;;;;;;;;;5076473;28;20356;-69
2024/03/01 03:45:43;;;;;;;52.65;31.52;;;;;;;;;;5077011;28;20082;-69
2024/03/01 03:48:10;;;;;;;48.35;31.15;;;;;;;;;;5076286;28;20722;-69
2024/03/01 03:50:36;;;;;;;46.60;31.35;;;;;;;;;;5076090;28;20020;-69
2024/03/01 03:53:01;;;;;;;50.58;31.15;;;;;;;;;;5076275;28;20024;-70
2024/03/01 03:55:27;;;;;;;46.45;31.70;;;;;;;;;;5084673;22;20059;-64
2024/03/01 03:57:52;;;;;;;53.97;33.08;;;;;;;;;;5049548;22;1190137;-64
2024/03/01 04:00:18;;;;;;;47.45;31.10;;;;;;;;;;5076305;28;20100;-66
2024/03/01 04:02:44;;;;;;;48.15;30.25;;;;;;;;;;5074852;28;20047;-66
2024/03/01 04:05:09;;;;;;;46.28;30.58;;;;;;;;;;5074773;28;20024;-67
2024/03/01 04:07:35;;;;;;;48.63;29.92;;;;;;;;;;5088605;22;20083;-71
2024/03/01 04:10:05;;;;;;;47.65;30.38;;;;;;;;;;5101564;22;20114;-70
2024/03/01 04:12:30;;;;;;;46.40;31.10;;;;;;;;;;5076206;28;20032;-69
2024/03/01 04:14:56;;;;;;;48.20;31.63;;;;;;;;;;5075831;28;20067;-69
2024/03/01 04:17:22;;;;;;;47.83;31.52;;;;;;;;;;5075471;28;20505;-69
2024/03/01 04:19:47;;;;;;;54.50;32.45;;;;;;;;;;5076288;28;20103;-69
2024/03/01 04:22:13;;;;;;;49.67;32.42;;;;;;;;;;5075685;28;20115;-70
2024/03/01 04:24:38;;;;;;;52.78;33.13;;;;;;;;;;5075893;28;20024;-69
2024/03/01 04:27:04;;;;;;;54.28;35.15;;;;;;;;;;5057615;28;20032;-69
2024/03/01 04:29:29;;;;;;;54.03;34.60;;;;;;;;;;5057592;28;20073;-70
2024/03/01 04:31:56;;;;;;;51.40;33.17;;;;;;;;;;5075507;28;20484;-72
2024/03/01 04:34:21;;;;;;;51.22;33.53;;;;;;;;;;5076848;28;20380;-72
2024/03/01 04:36:47;;;;;;;52.55;34.58;;;;;;;;;;5078790;28;20456;-72
2024/03/01 04:39:14;;;;;;;51.35;34.25;;;;;;;;;;5078385;28;20033;-72
2024/03/01 04:41:40;;;;;;;59.78;37.83;;;;;;;;;;5058291;28;20412;-72
2024/03/01 04:44:05;;;;;;;56.30;38.08;;;;;;;;;;5075937;28;20032;-72
2024/03/01 04:46:31;;;;;;;51.75;32.20;;;;;;;;;;5075721;28;20044;-70
2024/03/01 04:48:56;;;;;;;50.78;32.83;;;;;;;;;;5074424;28;20084;-71
2024/03/01 04:51:25;;;;;;;49.55;32.28;;;;;;;;;;5056492;28;20032;-69
2024/03/01 04:53:50;;;;;;;50.35;31.48;;;;;;;;;;5056015;28;20025;-69
2024/03/01 04:56:17;;;;;;;45.83;29.77;;;;;;;;;;5073874;28;20043;-72
2024/03/01 04:58:43;;;;;;;48.03;32.47;;;;;;;;;;5074064;28;20028;-72
2024/03/01 05:01:10;;;;;;;50.05;33.20;;;;;;;;;;5056352;28;20059;-71
2024/03/01 05:03:36;;;;;;;51.85;33.45;;;;;;;;;;5056174;28;20020;-71
2024/03/01 05:06:03;;;;;;;55.58;35.60;;;;;;;;;;5073136;28;20058;-71
2024/03/01 05:08:29;;;;;;;55.10;35.67;;;;;;;;;;5075495;28;20579;-72
2024/03/01 05:10:55;;;;;;;55.28;35.17;;;;;;;;;;5074811;28;20053;-71
2024/03/01 05:13:21;;;;;;;56.88;36.78;;;;;;;;;;5074928;28;20384;-70
2024/03/01 05:15:46;;;;;;;57.75;36.00;;;;;;;;;;5075177;28;20130;-70
2024/03/01 05:18:12;;;;;;;55.65;35.75;;;;;;;;;;5074840;28;20023;-71
2024/03/01 05:20:41;;;;;;;52.28;33.55;;;;;;;;;;5074759;28;20025;-70
2024/03/01 05:23:07;;;;;;;56.28;35.17;;;;;;;;;;5073813;28;20115;-70
2024/03/01 05:25:33;;;;;;;53.22;34.22;;;;;;;;;;5074985;28;20111;-70
2024/03/01 05:27:58;;;;;;;53.67;34.15;;;;;;;;;;5074661;28;20033;-70
2024/03/01 05:30:24;;;;;;;54.08;34.92;;;;;;;;;;5056692;28;20032;-70
2024/03/01 05:32:51;;;;;;;53.63;34.13;;;;;;;;;;5074319;28;20107;-70
2024/03/01 05:35:19;;;;;;;55.65;34.13;;;;;;;;;;5074562;28;20024;-70
2024/03/01 05:37:46;;;;;;;54.72;35.90;;;;;;;;;;5074511;28;20099;-71
2024/03/01 05:40:14;;;;;;;56.20;36.67;;;;;;;;;;5074724;28;20024;-71
2024/03/01 05:42:43;;;;;;;57.85;35.65;;;;;;;;;;5072826;28;20435;-71
2024/03/01 05:45:10;;;;;;;54.92;36.72;;;;;;;;;;5074341;28;20055;-71
2024/03/01 05:47:36;;;;;;;59.47;38.85;;;;;;;;;;5074301;28;20040;-71
2024/03/01 05:50:05;;;;;;;56.20;35.78;;;;;;;;;;5056084;28;20471;-71
2024/03/01 05:52:31;;;;;;;51.72;35.20;;;;;;;;;;5074547;28;20360;-70
2024/03/01 05:54:57;;;;;;;53.17;35.92;;;;;;;;;;5073963;28;20024;-69
2024/03/01 05:57:22;;;;;;;56.80;37.25;;;;;;;;;;5073963;28;20032;-71
2024/03/01 05:59:47;;;;;;;59.00;40.67;;;;;;;;;;5074040;28;20033;-71
2024/03/01 06:02:13;;;;;;;60.75;40.63;;;;;;;;;;5055378;28;20476;-71
2024/03/01 06:04:39;;;;;;;58.55;39.85;;;;;;;;;;5073920;28;20358;-71
2024/03/01 06:07:05;;;;;;;54.42;38.72;;;;;;;;;;5073445;28;20032;-71
2024/03/01 06:09:31;;;;;;;54.40;35.60;;;;;;;;;;5072117;28;20496;-70
2024/03/01 06:11:56;;;;;;;51.03;34.60;;;;;;;;;;5073123;28;20103;-71
2024/03/01 06:14:21;;;;;;;53.60;35.45;;;;;;;;;;5072749;28;20063;-71
2024/03/01 06:16:47;;;;;;;52.00;35.65;;;;;;;;;;5072985;28;20038;-71
2024/03/01 06:19:13;;;;;;;53.38;35.50;;;;;;;;;;5055751;28;20020;-71
2024/03/01 06:21:38;;;;;;;48.55;32.92;;;;;;;;;;5056459;28;20108;-71
2024/03/01 06:24:04;;;;;;;51.80;33.30;;;;;;;;;;5053578;28;20039;-71
2024/03/01 06:26:29;;;;;;;51.83;34.85;;;;;;;;;;5071547;28;20036;-71
2024/03/01 06:28:56;;;;;;;48.30;33.20;;;;;;;;;;5071425;28;20112;-62
2024/03/01 06:31:21;;;;;;;47.28;32.72;;;;;;;;;;5071552;28;20075;-62
2024/03/01 06:33:47;;;;;;;51.95;32.40;;;;;;;;;;5071561;28;20424;-62
2024/03/01 06:36:13;;;;;;;48.47;32.65;;;;;;;;;;5071698;28;20478;-62
2024/03/01 06:38:38;;;;;;;46.53;30.50;;;;;;;;;;5054921;28;20052;-62
2024/03/01 06:41:05;;;;;;;47.55;33.10;;;;;;;;;;5055781;28;20028;-62
2024/03/01 06:43:30;;;;;;;53.28;34.50;;;;;;;;;;5055367;28;20025;-62
2024/03/01 06:45:56;;;;;;;49.15;32.55;;;;;;;;;;5055454;28;20039;-62
2024/03/01 06:48:22;;;;;;;52.42;35.03;;;;;;;;;;5073586;28;20024;-62
2024/03/01 06:50:47;;;;;;;53.80;36.22;;;;;;;;;;5073487;28;20479;-62
2024/03/01 06:53:13;;;;;;;52.05;35.08;;;;;;;;;;5073545;28;20043;-62
2024/03/01 06:55:38;;;;;;;50.17;34.00;;;;;;;;;;5073228;28;20035;-62
2024/03/01 06:58:04;;;;;;;49.50;33.28;;;;;;;;;;5073474;28;20079;-62
2024/03/01 07:00:31;;;;;;;50.47;32.38;;;;;;;;;;5073178;28;20020;-62
2024/03/01 07:02:56;;;;;;;49.72;32.63;;;;;;;;;;5073428;28;20037;-62
2024/03/01 07:05:22;;;;;;;47.40;30.50;;;;;;;;;;5073168;28;20376;-62
2024/03/01 07:07:48;;;;;;;49.63;32.63;;;;;;;;;;5073088;28;20119;-62
2024/03/01 07:10:14;;;;;;;50.38;31.73;;;;;;;;;;5064185;28;20048;-62
2024/03/01 07:12:39;;;;;;;51.10;33.97;;;;;;;;;;5035335;28;20465;-62
2024/03/01 07:15:05;;;;;;;55.45;36.20;;;;;;;;;;5038530;28;20029;-62
2024/03/01 07:17:30;;;;;;;123.90;85.97;;;;;;;;;;5039089;28;20027;-62
2024/03/01 07:19:56;;;;;;;70.78;48.92;;;;;;;;;;5057105;28;20103;-62
2024/03/01 07:22:21;;;;;;;51.05;34.67;;;;;;;;;;5056854;28;20392;-62
2024/03/01 07:24:47;;;;;;;62.70;43.03;;;;;;;;;;5056751;28;20491;-62
2024/03/01 07:27:12;;;;;;;50.00;35.25;;;;;;;;;;5038876;28;20033;-62
2024/03/01 07:29:37;;;;;;;52.83;34.80;;;;;;;;;;5056901;28;20135;-62
2024/03/01 07:32:03;;;;;;;53.63;35.28;;;;;;;;;;5038859;28;20029;-63
2024/03/01 07:34:28;;;;;;;56.03;37.75;;;;;;;;;;5057150;28;20374;-62
2024/03/01 07:36:53;;;;;;;56.42;36.22;;;;;;;;;;5056573;28;20104;-62
2024/03/01 07:39:19;;;;;;;52.55;35.55;;;;;;;;;;5056773;28;20107;-62
2024/03/01 07:41:44;;;;;;;66.38;47.60;;;;;;;;;;5056741;28;20098;-62
2024/03/01 07:44:10;;;;;;;55.28;36.53;;;;;;;;;;5056981;28;20029;-62
2024/03/01 07:46:37;;;;;;;51.00;35.10;;;;;;;;;;5038985;28;20051;-62
2024/03/01 07:49:02;;;;;;;54.05;35.38;;;;;;;;;;5039554;28;20033;-62
2024/03/01 07:51:28;;;;;;;54.05;37.40;;;;;;;;;;5057622;28;20373;-62
2024/03/01 07:53:54;;;;;;;47.78;33.65;;;;;;;;;;5057026;28;20155;-62
2024/03/01 07:56:21;;;;;;;50.20;32.45;;;;;;;;;;5056412;28;20017;-62
2024/03/01 07:58:50;;;;;;;67.82;41.90;;;;;;;;;;5056134;28;20037;-62
2024/03/01 08:01:16;;;;;;;83.05;45.50;;;;;;;;;;5056042;28;20100;-62
2024/03/01 08:03:42;;;;;;;47.88;30.65;;;;;;;;;;5038227;28;20024;-62
2024/03/01 08:06:07;;;;;;;48.88;32.72;;;;;;;;;;5056293;28;20091;-62
2024/03/01 08:08:35;;;;;;;52.28;34.40;;;;;;;;;;5038211;28;20100;-62
2024/03/01 08:11:07;;;;;;;49.28;32.63;;;;;;;;;;5055893;28;20098;-62
2024/03/01 08:13:32;;;;;;;47.95;30.70;;;;;;;;;;5056168;28;20029;-62
2024/03/01 08:15:58;;;;;;;51.22;36.30;;;;;;;;;;5056070;28;20469;-62
2024/03/01 08:18:25;;;;;;;46.83;34.22;;;;;;;;;;5055784;28;20109;-62
2024/03/01 08:20:51;;;;;;;52.50;36.85;;;;;;;;;;5038262;28;20021;-62
2024/03/01 08:23:16;;;;;;;61.42;46.65;;;;;;;;;;5037790;28;20036;-62
2024/03/01 08:25:41;;;;;;;59.50;46.72;;;;;;;;;;5055070;28;20536;-62
2024/03/01 08:28:09;;;;;;;65.18;45.88;;;;;;;;;;5055568;28;20152;-62
2024/03/01 08:30:38;;;;;;;48.97;34.22;;;;;;;;;;5055473;28;20154;-63
2024/03/01 08:33:03;;;;;;;68.78;48.15;;;;;;;;;;5055476;28;20021;-62
2024/03/01 08:35:29;;;;;;;90.50;62.20;;;;;;;;;;5038213;28;20040;-62
2024/03/01 08:37:55;;;;;;;55.25;35.67;;;;;;;;;;5055430;28;20188;-62
2024/03/01 08:40:23;;;;;;;52.55;37.72;;;;;;;;;;5055343;28;20029;-62
2024/03/01 08:42:49;;;;;;;44.50;29.15;;;;;;;;;;5055575;28;20033;-62
2024/03/01 08:45:26;;;;;;;52.83;36.33;;;;;;;;;;5055817;28;20037;-63
2024/03/01 08:47:58;;;;;;;46.00;31.48;;;;;;;;;;5055258;28;20033;-62
2024/03/01 08:50:36;;;;;;;39.30;26.92;;;;;;;;;;5037247;28;20036;-70
2024/03/01 08:53:04;;;;;;;47.85;33.38;;;;;;;;;;5055398;28;20033;-71
2024/03/01 08:55:29;;;;;;;46.67;34.13;;;;;;;;;;5054452;28;20516;-71
2024/03/01 08:57:58;;;;;;;52.00;36.00;;;;;;;;;;5055009;28;20029;-71
2024/03/01 09:00:27;;;;;;;44.42;30.75;;;;;;;;;;5054968;28;20060;-71
2024/03/01 09:02:53;;;;;;;49.20;34.08;;;;;;;;;;5055445;28;20039;-71
2024/03/01 09:05:22;;;;;;;40.28;28.42;;;;;;;;;;5055154;28;20057;-71
2024/03/01 09:07:49;;;;;;;48.33;30.02;;;;;;;;;;5054876;28;20056;-71
2024/03/01 09:10:26;;;;;;;45.25;29.38;;;;;;;;;;5054754;28;20037;-70
2024/03/01 09:12:52;;;;;;;42.75;30.55;;;;;;;;;;5055311;28;20057;-71
2024/03/01 09:15:21;;;;;;;46.38;29.83;;;;;;;;;;5036758;28;20064;-71
2024/03/01 09:17:46;;;;;;;43.55;29.42;;;;;;;;;;5037453;28;20017;-71
2024/03/01 09:20:19;;;;;;;41.05;28.33;;;;;;;;;;5055175;28;20033;-71
2024/03/01 09:22:45;;;;;;;39.90;27.20;;;;;;;;;;5054847;28;20120;-71
2024/03/01 09:25:30;;;;;;;44.03;30.15;;;;;;;;;;5036644;28;20045;-71
2024/03/01 09:27:55;;;;;;;33.55;22.13;;;;;;;;;;5054796;28;20064;-70
2024/03/01 09:30:22;;;;;;;47.88;29.70;;;;;;;;;;5054353;28;20487;-71
2024/03/01 09:32:48;;;;;;;39.28;25.80;;;;;;;;;;5054292;28;20473;-71
2024/03/01 09:35:14;;;;;;;42.22;28.95;;;;;;;;;;5054216;28;20043;-71
2024/03/01 09:37:40;;;;;;;45.08;29.27;;;;;;;;;;5053779;28;20037;-71
2024/03/01 09:40:25;;;;;;;44.08;28.33;;;;;;;;;;5054465;28;20043;-71
2024/03/01 09:42:59;;;;;;;40.65;25.70;;;;;;;;;;5054101;28;20469;-71
2024/03/01 09:45:45;;;;;;;43.47;27.08;;;;;;;;;;5054406;28;20109;-71
2024/03/01 09:48:12;;;;;;;39.22;26.55;;;;;;;;;;5054095;28;20025;-71
2024/03/01 09:51:13;;;;;;;44.63;29.05;;;;;;;;;;5053878;28;20122;-71
2024/03/01 09:53:45;;;;;;;39.50;26.48;;;;;;;;;;4983440;28;20043;-71
2024/03/01 09:56:24;;;;;;;44.60;27.70;;;;;;;;;;5054462;28;20075;-71
2024/03/01 09:58:59;;;;;;;45.67;27.20;;;;;;;;;;5054187;28;20037;-71
2024/03/01 10:01:29;;;;;;;41.53;26.85;;;;;;;;;;5053845;28;20025;-71
2024/03/01 10:04:04;;;;;;;40.65;27.27;;;;;;;;;;5054035;28;20420;-71
2024/03/01 10:06:30;;;;;;;41.67;26.92;;;;;;;;;;5053707;28;20480;-71
2024/03/01 10:09:12;;;;;;;40.08;25.08;;;;;;;;;;5035930;28;20035;-71
2024/03/01 10:11:44;;;;;;;38.70;27.08;;;;;;;;;;5052466;28;20560;-62
2024/03/01 10:14:22;;;;;;;48.28;29.80;;;;;;;;;;5053927;28;20477;-62
2024/03/01 10:17:07;;;;;;;39.60;26.10;;;;;;;;;;5035768;28;20405;-62
2024/03/01 10:19:33;;;;;;;53.83;32.80;;;;;;;;;;5052336;28;20392;-62
2024/03/01 10:22:07;;;;;;;44.88;27.50;;;;;;;;;;5053558;28;20033;-62
2024/03/01 10:24:42;;;;;;;40.53;24.92;;;;;;;;;;5052387;28;20041;-62
2024/03/01 10:27:25;;;;;;;38.20;24.85;;;;;;;;;;5052634;28;20037;-62
2024/03/01 10:29:59;;;;;;;44.38;28.05;;;;;;;;;;5053679;28;20043;-62
2024/03/01 10:32:34;;;;;;;39.97;26.30;;;;;;;;;;5035642;28;20025;-62
2024/03/01 10:35:08;;;;;;;44.83;26.50;;;;;;;;;;5054265;28;20087;-62
2024/03/01 10:37:52;;;;;;;35.95;24.85;;;;;;;;;;5053974;28;20080;-62
2024/03/01 10:40:18;;;;;;;49.55;29.67;;;;;;;;;;5053938;28;20057;-62
2024/03/01 10:43:04;;;;;;;52.58;32.92;;;;;;;;;;5053369;28;20017;-62
2024/03/01 10:45:33;;;;;;;52.42;34.33;;;;;;;;;;5053614;28;20032;-62
2024/03/01 10:47:58;;;;;;;47.05;32.03;;;;;;;;;;5055294;28;20033;-62
2024/03/01 10:50:28;;;;;;;51.65;30.83;;;;;;;;;;5057349;28;20388;-62
2024/03/01 10:53:06;;;;;;;65.73;44.97;;;;;;;;;;5039941;28;20029;-62
2024/03/01 10:55:34;;;;;;;62.97;42.60;;;;;;;;;;5057623;28;20032;-71
2024/03/01 10:57:59;;;;;;;86.10;52.55;;;;;;;;;;5057287;28;20040;-71
2024/03/01 11:00:26;;;;;;;51.13;35.17;;;;;;;;;;5057897;28;20037;-72
2024/03/01 11:03:10;;;;;;;44.38;28.98;;;;;;;;;;5058036;28;20021;-74
2024/03/01 11:05:42;;;;;;;46.28;28.63;;;;;;;;;;5040126;28;20025;-71
2024/03/01 11:11:06;;;;;;;41.25;28.33;;;;;;;;;;5103458;23;20056;-62
2024/03/01 11:13:34;;;;;;;39.70;26.27;;;;;;;;;;5097617;28;20064;-62
2024/03/01 11:16:01;;;;;;;42.20;25.05;;;;;;;;;;5097571;28;20026;-62
2024/03/01 11:18:28;;;;;;;37.70;24.38;;;;;;;;;;5097233;28;20032;-62
2024/03/01 11:21:25;;;;;;;37.70;24.45;;;;;;;;;;5097443;28;20036;-62
2024/03/01 11:24:03;;;;;;;37.60;24.13;;;;;;;;;;5080735;28;20043;-61
2024/03/01 11:26:42;;;;;;;36.33;23.17;;;;;;;;;;5097382;28;20028;-62
2024/03/01 11:29:19;;;;;;;39.20;25.35;;;;;;;;;;5079127;28;20040;-62
2024/03/01 11:31:46;;;;;;;38.65;25.25;;;;;;;;;;5078802;28;20054;-62
2024/03/01 11:34:33;;;;;;;39.50;27.02;;;;;;;;;;5078745;28;20024;-62
2024/03/01 11:37:05;;;;;;;42.63;28.50;;;;;;;;;;5078671;28;20028;-62
2024/03/01 11:39:30;;;;;;;43.95;28.13;;;;;;;;;;5097130;28;20032;-62
2024/03/01 11:41:55;;;;;;;42.97;29.50;;;;;;;;;;5096794;28;20105;-62
2024/03/01 11:44:29;;;;;;;41.05;26.13;;;;;;;;;;5097281;28;20038;-62
2024/03/01 11:47:06;;;;;;;42.72;27.67;;;;;;;;;;5096967;28;20114;-62
2024/03/01 11:49:32;;;;;;;41.80;27.33;;;;;;;;;;5078369;28;20044;-62
2024/03/01 11:52:05;;;;;;;40.92;26.65;;;;;;;;;;5095337;28;20562;-62
2024/03/01 11:54:33;;;;;;;39.78;25.63;;;;;;;;;;5097118;28;20028;-62
2024/03/01 11:57:05;;;;;;;44.03;26.25;;;;;;;;;;5096792;28;20028;-62
2024/03/01 11:59:33;;;;;;;40.08;28.15;;;;;;;;;;5095452;28;20064;-62
2024/03/01 12:02:11;;;;;;;38.83;24.67;;;;;;;;;;5078605;28;20471;-62
2024/03/01 12:04:37;;;;;;;40.72;24.90;;;;;;;;;;5078148;28;20042;-62
2024/03/01 12:07:13;;;;;;;39.67;25.80;;;;;;;;;;5096577;28;20016;-62
2024/03/01 12:09:54;;;;;;;38.33;24.88;;;;;;;;;;5096031;28;20044;-62
2024/03/01 12:12:24;;;;;;;35.10;24.70;;;;;;;;;;5096524;28;20028;-62
2024/03/01 12:15:01;;;;;;;39.20;24.13;;;;;;;;;;5096473;28;20028;-63
2024/03/01 12:17:29;;;;;;;34.47;23.15;;;;;;;;;;5096101;28;20515;-63
2024/03/01 12:20:05;;;;;;;36.05;22.38;;;;;;;;;;5096869;28;20425;-62
2024/03/01 12:22:40;;;;;;;37.10;24.90;;;;;;;;;;5077870;28;20034;-62
2024/03/01 12:25:05;;;;;;;36.35;24.33;;;;;;;;;;5096238;28;20032;-62
2024/03/01 12:27:53;;;;;;;35.13;24.25;;;;;;;;;;5096183;28;20039;-62
2024/03/01 12:30:30;;;;;;;38.83;25.45;;;;;;;;;;5077673;28;20032;-62
2024/03/01 12:33:13;;;;;;;34.60;23.15;;;;;;;;;;5096079;28;20024;-62
2024/03/01 12:35:38;;;;;;;28.15;18.98;;;;;;;;;;5095721;28;20032;-63
2024/03/01 12:38:10;;;;;;;34.03;22.40;;;;;;;;;;5095716;28;20058;-63
2024/03/01 12:40:43;;;;;;;32.30;20.95;;;;;;;;;;5077538;28;20028;-62
2024/03/01 12:43:38;;;;;;;21.60;15.38;;;;;;;;;;5077865;28;20028;-62
2024/03/01 12:46:27;;;;;;;33.20;23.25;;;;;;;;;;5078294;28;20040;-62
2024/03/01 12:49:04;;;;;;;34.30;21.43;;;;;;;;;;5058352;28;20535;-62
2024/03/01 12:51:32;;;;;;;34.97;24.20;;;;;;;;;;5077739;28;20052;-71
2024/03/01 12:54:07;;;;;;;29.92;22.27;;;;;;;;;;5095441;28;20055;-71
2024/03/01 12:56:32;;;;;;;34.85;21.50;;;;;;;;;;5095388;28;20025;-71
2024/03/01 12:59:16;;;;;;;32.47;20.85;;;;;;;;;;5094054;28;20050;-71
2024/03/01 13:01:42;;;;;;;31.23;20.40;;;;;;;;;;5095265;28;20111;-71
2024/03/01 13:04:19;;;;;;;26.67;18.80;;;;;;;;;;5095791;28;20058;-71
2024/03/01 13:06:46;;;;;;;35.67;21.77;;;;;;;;;;5095692;28;20468;-72
2024/03/01 13:09:19;;;;;;;35.63;23.10;;;;;;;;;;5094662;28;20499;-71
2024/03/01 13:11:45;;;;;;;37.58;23.10;;;;;;;;;;5076830;28;20517;-71
2024/03/01 13:14:11;;;;;;;34.22;22.83;;;;;;;;;;5094811;28;20032;-62
2024/03/01 13:16:36;;;;;;;34.55;22.85;;;;;;;;;;5076784;28;20024;-62
2024/03/01 13:19:05;;;;;;;36.80;23.83;;;;;;;;;;5094849;28;20047;-71
2024/03/01 13:21:51;;;;;;;37.42;24.38;;;;;;;;;;5093596;28;20047;-71
2024/03/01 13:24:16;;;;;;;33.72;22.88;;;;;;;;;;5093919;28;20084;-62
2024/03/01 13:26:51;;;;;;;35.13;24.27;;;;;;;;;;5076299;28;20099;-62
2024/03/01 13:29:17;;;;;;;41.13;24.67;;;;;;;;;;5095190;28;20031;-62
2024/03/01 13:31:44;;;;;;;32.53;21.55;;;;;;;;;;5059895;28;20016;-63
2024/03/01 13:34:10;;;;;;;37.15;25.08;;;;;;;;;;5094747;28;20032;-64
2024/03/01 13:36:38;;;;;;;34.22;22.70;;;;;;;;;;5096586;28;20024;-62
2024/03/01 13:39:22;;;;;;;31.83;21.40;;;;;;;;;;5078857;28;20434;-62
2024/03/01 13:41:48;;;;;;;35.47;21.50;;;;;;;;;;5095734;28;20090;-62
2024/03/01 13:44:27;;;;;;;36.97;22.05;;;;;;;;;;5094458;28;20036;-62
2024/03/01 13:46:59;;;;;;;36.38;24.52;;;;;;;;;;5076273;28;20024;-63
2024/03/01 13:49:30;;;;;;;41.85;24.02;;;;;;;;;;5094743;28;20072;-62
2024/03/01 13:51:55;;;;;;;41.85;25.77;;;;;;;;;;5076240;28;20031;-62
2024/03/01 13:54:21;;;;;;;39.03;25.70;;;;;;;;;;5094469;28;20375;-62
2024/03/01 13:56:46;;;;;;;40.83;25.63;;;;;;;;;;5094538;28;20446;-62
2024/03/01 13:59:12;;;;;;;44.05;26.83;;;;;;;;;;5076432;28;20024;-62
2024/03/01 14:01:37;;;;;;;41.38;27.88;;;;;;;;;;5093886;28;20472;-62
2024/03/01 14:04:06;;;;;;;47.38;29.48;;;;;;;;;;5075454;28;20039;-62
2024/03/01 14:06:31;;;;;;;47.53;29.85;;;;;;;;;;5075976;28;20024;-62
2024/03/01 14:09:17;;;;;;;45.47;28.20;;;;;;;;;;5093267;28;20472;-62
2024/03/01 14:11:43;;;;;;;47.80;28.40;;;;;;;;;;5092135;28;20123;-62
2024/03/01 14:14:08;;;;;;;40.72;27.23;;;;;;;;;;5092053;28;20052;-62
2024/03/01 14:16:34;;;;;;;40.63;25.42;;;;;;;;;;5075268;28;20479;-62
2024/03/01 14:19:00;;;;;;;47.20;26.73;;;;;;;;;;5093909;28;20465;-62
2024/03/01 14:21:28;;;;;;;50.72;30.58;;;;;;;;;;5094109;28;20036;-62
2024/03/01 14:23:53;;;;;;;46.72;28.67;;;;;;;;;;5093364;28;20032;-62
2024/03/01 14:26:19;;;;;;;39.95;24.00;;;;;;;;;;5075702;28;20039;-62
2024/03/01 14:28:45;;;;;;;54.90;31.42;;;;;;;;;;5094043;28;20064;-62